sensor_id;sensor_type;location;lat;lon;timestamp;pressure;altitude;pressure_sealevel;temperature;humidity
10064;BME280;5071;52.360;13.134;2023-04-27T00:03:05;101336.69;;;6.80;68.29
10064;BME280;5071;52.360;13.134;2023-04-27T00:08:09;101336.63;;;6.77;68.08
10064;BME280;5071;52.360;13.134;2023-04-27T00:13:12;101334.13;;;6.88;68.45
10064;BME280;5071;52.360;13.134;2023-04-27T00:18:14;101332.97;;;6.66;68.54
10064;BME280;5071;52.360;13.134;2023-04-27T00:23:17;101322.47;;;6.69;68.97
10064;BME280;5071;52.360;13.134;2023-04-27T00:28:19;101331.22;;;6.68;69.51
10064;BME280;5071;52.360;13.134;2023-04-27T00:33:21;101328.59;;;6.68;69.22
10064;BME280;5071;52.360;13.134;2023-04-27T00:38:26;101329.50;;;6.70;69.11
10064;BME280;5071;52.360;13.134;2023-04-27T00:43:28;101334.78;;;6.70;69.40
10064;BME280;5071;52.360;13.134;2023-04-27T00:48:30;101334.47;;;6.47;70.02
10064;BME280;5071;52.360;13.134;2023-04-27T00:53:35;101343.38;;;6.53;70.42
10064;BME280;5071;52.360;13.134;2023-04-27T00:58:37;101337.16;;;6.50;70.55
10064;BME280;5071;52.360;13.134;2023-04-27T01:03:39;101343.41;;;6.56;70.72
10064;BME280;5071;52.360;13.134;2023-04-27T01:08:43;101341.66;;;6.58;70.84
10064;BME280;5071;52.360;13.134;2023-04-27T01:13:44;101350.34;;;6.51;71.69
10064;BME280;5071;52.360;13.134;2023-04-27T01:18:47;101349.28;;;6.37;71.63
10064;BME280;5071;52.360;13.134;2023-04-27T01:23:52;101352.84;;;6.40;72.09
10064;BME280;5071;52.360;13.134;2023-04-27T01:28:53;101354.44;;;6.29;71.75
10064;BME280;5071;52.360;13.134;2023-04-27T01:33:56;101345.63;;;6.27;72.48
10064;BME280;5071;52.360;13.134;2023-04-27T01:38:59;101350.13;;;6.36;72.27
10064;BME280;5071;52.360;13.134;2023-04-27T01:44:01;101365.22;;;6.45;71.98
10064;BME280;5071;52.360;13.134;2023-04-27T01:49:04;101364.19;;;6.35;72.26
10064;BME280;5071;52.360;13.134;2023-04-27T01:54:08;101371.19;;;6.33;72.68
10064;BME280;5071;52.360;13.134;2023-04-27T01:59:09;101378.19;;;6.29;72.97
10064;BME280;5071;52.360;13.134;2023-04-27T02:04:11;101380.09;;;6.41;72.94
10064;BME280;5071;52.360;13.134;2023-04-27T02:09:16;101376.34;;;6.27;73.46
10064;BME280;5071;52.360;13.134;2023-04-27T02:14:18;101372.78;;;6.21;73.21
10064;BME280;5071;52.360;13.134;2023-04-27T02:19:20;101389.53;;;6.25;72.67
10064;BME280;5071;52.360;13.134;2023-04-27T02:24:24;101392.28;;;6.33;72.77
10064;BME280;5071;52.360;13.134;2023-04-27T02:29:29;101386.75;;;6.17;72.81
10064;BME280;5071;52.360;13.134;2023-04-27T02:34:31;101395.72;;;6.29;72.31
10064;BME280;5071;52.360;13.134;2023-04-27T02:39:35;101397.44;;;6.27;72.44
10064;BME280;5071;52.360;13.134;2023-04-27T02:44:37;101388.44;;;6.12;71.96
10064;BME280;5071;52.360;13.134;2023-04-27T02:49:39;101398.09;;;6.10;72.53
10064;BME280;5071;52.360;13.134;2023-04-27T02:54:43;101392.97;;;6.19;72.20
10064;BME280;5071;52.360;13.134;2023-04-27T02:59:45;101399.00;;;6.12;71.97
10064;BME280;5071;52.360;13.134;2023-04-27T03:04:51;101407.81;;;6.14;71.58
10064;BME280;5071;52.360;13.134;2023-04-27T03:09:54;101407.75;;;6.11;71.30
10064;BME280;5071;52.360;13.134;2023-04-27T03:14:56;101407.84;;;6.17;71.63
10064;BME280;5071;52.360;13.134;2023-04-27T03:19:59;101408.63;;;6.10;72.11
10064;BME280;5071;52.360;13.134;2023-04-27T03:25:03;101413.78;;;6.02;72.37
10064;BME280;5071;52.360;13.134;2023-04-27T03:30:05;101414.75;;;6.09;72.23
10064;BME280;5071;52.360;13.134;2023-04-27T03:35:08;101427.69;;;5.95;72.66
10064;BME280;5071;52.360;13.134;2023-04-27T03:40:12;101437.56;;;6.07;72.37
10064;BME280;5071;52.360;13.134;2023-04-27T03:45:15;101441.03;;;6.06;72.96
10064;BME280;5071;52.360;13.134;2023-04-27T03:50:17;101434.75;;;5.98;73.10
10064;BME280;5071;52.360;13.134;2023-04-27T03:55:20;101442.47;;;5.89;73.68
10064;BME280;5071;52.360;13.134;2023-04-27T04:00:22;101447.84;;;5.95;73.73
10064;BME280;5071;52.360;13.134;2023-04-27T04:05:24;101449.88;;;6.08;73.29
10064;BME280;5071;52.360;13.134;2023-04-27T04:10:27;101447.78;;;5.92;73.50
10064;BME280;5071;52.360;13.134;2023-04-27T04:15:30;101460.09;;;5.93;73.45
10064;BME280;5071;52.360;13.134;2023-04-27T04:20:33;101465.47;;;5.96;74.11
10064;BME280;5071;52.360;13.134;2023-04-27T04:25:37;101466.28;;;5.93;74.37
10064;BME280;5071;52.360;13.134;2023-04-27T04:30:39;101469.63;;;5.84;74.93
10064;BME280;5071;52.360;13.134;2023-04-27T04:35:41;101471.38;;;5.84;75.77
10064;BME280;5071;52.360;13.134;2023-04-27T04:40:44;101475.19;;;6.00;74.79
10064;BME280;5071;52.360;13.134;2023-04-27T04:45:47;101478.72;;;6.00;74.46
10064;BME280;5071;52.360;13.134;2023-04-27T04:50:49;101480.81;;;6.18;73.88
10064;BME280;5071;52.360;13.134;2023-04-27T04:55:53;101484.22;;;6.13;72.80
10064;BME280;5071;52.360;13.134;2023-04-27T05:00:55;101484.50;;;6.30;72.27
10064;BME280;5071;52.360;13.134;2023-04-27T05:05:57;101487.41;;;6.45;71.58
10064;BME280;5071;52.360;13.134;2023-04-27T05:11:00;101497.41;;;6.65;71.10
10064;BME280;5071;52.360;13.134;2023-04-27T05:16:03;101492.13;;;6.65;70.28
10064;BME280;5071;52.360;13.134;2023-04-27T05:21:12;101492.25;;;6.72;69.92
10064;BME280;5071;52.360;13.134;2023-04-27T05:26:17;101494.34;;;6.95;70.08
10064;BME280;5071;52.360;13.134;2023-04-27T05:31:18;101488.53;;;7.19;67.72
10064;BME280;5071;52.360;13.134;2023-04-27T05:36:21;101487.50;;;7.08;66.89
10064;BME280;5071;52.360;13.134;2023-04-27T05:41:24;101493.81;;;7.19;67.15
10064;BME280;5071;52.360;13.134;2023-04-27T05:46:26;101499.03;;;7.16;66.65
10064;BME280;5071;52.360;13.134;2023-04-27T05:51:28;101493.75;;;7.16;67.53
10064;BME280;5071;52.360;13.134;2023-04-27T05:56:31;101505.97;;;7.78;64.85
10064;BME280;5071;52.360;13.134;2023-04-27T06:01:34;101508.97;;;7.35;64.92
10064;BME280;5071;52.360;13.134;2023-04-27T06:06:36;101524.00;;;8.16;63.51
10064;BME280;5071;52.360;13.134;2023-04-27T06:11:40;101520.56;;;8.25;63.29
10064;BME280;5071;52.360;13.134;2023-04-27T06:16:42;101529.75;;;8.61;62.04
10064;BME280;5071;52.360;13.134;2023-04-27T06:21:44;101535.88;;;8.56;62.26
10064;BME280;5071;52.360;13.134;2023-04-27T06:26:48;101527.19;;;7.84;63.15
10064;BME280;5071;52.360;13.134;2023-04-27T06:31:50;101528.22;;;7.97;62.85
10064;BME280;5071;52.360;13.134;2023-04-27T06:36:52;101536.44;;;8.25;62.46
10064;BME280;5071;52.360;13.134;2023-04-27T06:41:55;101533.31;;;8.66;60.94
10064;BME280;5071;52.360;13.134;2023-04-27T06:46:58;101546.13;;;8.23;61.17
10064;BME280;5071;52.360;13.134;2023-04-27T06:52:01;101542.97;;;8.61;61.25
10064;BME280;5071;52.360;13.134;2023-04-27T06:57:05;101549.50;;;9.07;60.07
10064;BME280;5071;52.360;13.134;2023-04-27T07:02:07;101549.06;;;8.49;59.89
10064;BME280;5071;52.360;13.134;2023-04-27T07:07:09;101547.97;;;8.30;60.62
10064;BME280;5071;52.360;13.134;2023-04-27T07:12:13;101544.81;;;8.68;60.97
10064;BME280;5071;52.360;13.134;2023-04-27T07:17:15;101555.63;;;8.95;58.86
10064;BME280;5071;52.360;13.134;2023-04-27T07:22:17;101551.16;;;8.90;58.73
10064;BME280;5071;52.360;13.134;2023-04-27T07:27:21;101559.28;;;9.16;58.65
10064;BME280;5071;52.360;13.134;2023-04-27T07:32:23;101545.94;;;8.99;59.89
10064;BME280;5071;52.360;13.134;2023-04-27T07:37:25;101547.00;;;9.27;57.77
10064;BME280;5071;52.360;13.134;2023-04-27T07:42:29;101561.47;;;8.57;58.79
10064;BME280;5071;52.360;13.134;2023-04-27T07:47:31;101566.50;;;8.34;59.23
10064;BME280;5071;52.360;13.134;2023-04-27T07:52:32;101574.69;;;8.54;59.76
10064;BME280;5071;52.360;13.134;2023-04-27T07:57:35;101562.81;;;9.15;59.03
10064;BME280;5071;52.360;13.134;2023-04-27T08:02:38;101562.25;;;9.78;56.25
10064;BME280;5071;52.360;13.134;2023-04-27T08:07:40;101563.16;;;9.77;55.92
10064;BME280;5071;52.360;13.134;2023-04-27T08:12:47;101570.41;;;10.45;53.05
10064;BME280;5071;52.360;13.134;2023-04-27T08:17:49;101566.84;;;10.23;52.87
10064;BME280;5071;52.360;13.134;2023-04-27T08:22:51;101575.78;;;10.70;51.71
10064;BME280;5071;52.360;13.134;2023-04-27T08:27:54;101569.41;;;9.96;51.77
10064;BME280;5071;52.360;13.134;2023-04-27T08:32:56;101562.28;;;9.87;54.17
10064;BME280;5071;52.360;13.134;2023-04-27T08:37:59;101572.84;;;9.71;55.36
10064;BME280;5071;52.360;13.134;2023-04-27T08:43:02;101591.06;;;9.19;56.97
10064;BME280;5071;52.360;13.134;2023-04-27T08:48:05;101588.16;;;8.81;59.00
10064;BME280;5071;52.360;13.134;2023-04-27T08:53:15;101581.66;;;8.48;59.31
10064;BME280;5071;52.360;13.134;2023-04-27T08:58:19;101578.97;;;8.43;59.69
10064;BME280;5071;52.360;13.134;2023-04-27T09:03:21;101590.03;;;8.99;60.48
10064;BME280;5071;52.360;13.134;2023-04-27T09:08:24;101580.97;;;10.30;56.27
10064;BME280;5071;52.360;13.134;2023-04-27T09:13:37;101569.41;;;9.99;57.15
10064;BME280;5071;52.360;13.134;2023-04-27T09:18:41;101568.56;;;10.17;55.04
10064;BME280;5071;52.360;13.134;2023-04-27T09:23:43;101579.28;;;10.30;54.08
10064;BME280;5071;52.360;13.134;2023-04-27T09:28:47;101565.28;;;12.77;47.14
10064;BME280;5071;52.360;13.134;2023-04-27T09:33:54;101573.69;;;13.33;44.69
10064;BME280;5071;52.360;13.134;2023-04-27T09:38:56;101560.66;;;11.32;48.66
10064;BME280;5071;52.360;13.134;2023-04-27T09:44:00;101571.25;;;10.27;52.01
10064;BME280;5071;52.360;13.134;2023-04-27T09:49:03;101562.25;;;9.76;53.61
10064;BME280;5071;52.360;13.134;2023-04-27T09:54:06;101557.94;;;10.10;52.64
10064;BME280;5071;52.360;13.134;2023-04-27T09:59:31;101551.81;;;11.36;51.00
10064;BME280;5071;52.360;13.134;2023-04-27T10:04:50;101548.94;;;15.09;42.91
10064;BME280;5071;52.360;13.134;2023-04-27T10:10:00;101540.09;;;11.85;46.61
10064;BME280;5071;52.360;13.134;2023-04-27T10:15:13;101538.50;;;11.38;49.48
10064;BME280;5071;52.360;13.134;2023-04-27T10:20:16;101550.22;;;12.71;43.57
10064;BME280;5071;52.360;13.134;2023-04-27T10:25:20;101537.03;;;14.17;41.73
10064;BME280;5071;52.360;13.134;2023-04-27T10:30:26;101530.66;;;17.91;32.89
10064;BME280;5071;52.360;13.134;2023-04-27T10:35:32;101546.19;;;16.42;36.92
10064;BME280;5071;52.360;13.134;2023-04-27T10:40:35;101540.81;;;13.25;41.92
10064;BME280;5071;52.360;13.134;2023-04-27T10:45:39;101541.69;;;12.20;45.04
10064;BME280;5071;52.360;13.134;2023-04-27T10:50:42;101539.44;;;11.23;46.97
10064;BME280;5071;52.360;13.134;2023-04-27T10:55:44;101547.19;;;13.13;42.47
10064;BME280;5071;52.360;13.134;2023-04-27T11:00:48;101527.97;;;14.30;38.12
10064;BME280;5071;52.360;13.134;2023-04-27T11:05:58;101537.03;;;14.77;36.16
10064;BME280;5071;52.360;13.134;2023-04-27T11:11:01;101522.69;;;14.82;37.54
10064;BME280;5071;52.360;13.134;2023-04-27T11:16:05;101526.38;;;14.74;36.95
10064;BME280;5071;52.360;13.134;2023-04-27T11:21:09;101524.72;;;14.67;34.51
10064;BME280;5071;52.360;13.134;2023-04-27T11:26:13;101524.81;;;14.61;38.05
10064;BME280;5071;52.360;13.134;2023-04-27T11:31:17;101523.50;;;14.29;37.32
10064;BME280;5071;52.360;13.134;2023-04-27T11:36:21;101527.97;;;13.64;39.52
10064;BME280;5071;52.360;13.134;2023-04-27T11:41:32;101539.72;;;13.47;38.90
10064;BME280;5071;52.360;13.134;2023-04-27T11:46:36;101543.47;;;12.22;40.51
10064;BME280;5071;52.360;13.134;2023-04-27T11:51:38;101557.81;;;11.86;39.97
10064;BME280;5071;52.360;13.134;2023-04-27T11:56:41;101559.69;;;11.62;40.72
10064;BME280;5071;52.360;13.134;2023-04-27T12:01:45;101554.34;;;11.72;39.59
10064;BME280;5071;52.360;13.134;2023-04-27T12:06:48;101542.69;;;12.05;40.29
10064;BME280;5071;52.360;13.134;2023-04-27T12:11:50;101556.06;;;11.82;40.03
10064;BME280;5071;52.360;13.134;2023-04-27T12:16:53;101550.22;;;12.68;39.90
10064;BME280;5071;52.360;13.134;2023-04-27T12:21:56;101553.56;;;12.95;39.62
10064;BME280;5071;52.360;13.134;2023-04-27T12:26:58;101554.41;;;12.98;38.51
10064;BME280;5071;52.360;13.134;2023-04-27T12:32:03;101549.00;;;13.06;38.05
10064;BME280;5071;52.360;13.134;2023-04-27T12:37:05;101550.41;;;12.47;39.28
10064;BME280;5071;52.360;13.134;2023-04-27T12:42:07;101549.16;;;12.91;39.10
10064;BME280;5071;52.360;13.134;2023-04-27T12:47:11;101544.25;;;13.42;36.42
10064;BME280;5071;52.360;13.134;2023-04-27T12:52:29;101542.66;;;15.10;36.39
10064;BME280;5071;52.360;13.134;2023-04-27T12:57:31;101554.47;;;14.43;34.71
10064;BME280;5071;52.360;13.134;2023-04-27T13:02:34;101553.63;;;12.86;39.41
10064;BME280;5071;52.360;13.134;2023-04-27T13:07:37;101556.75;;;12.25;38.37
10064;BME280;5071;52.360;13.134;2023-04-27T13:12:39;101548.03;;;12.05;41.18
10064;BME280;5071;52.360;13.134;2023-04-27T13:17:42;101555.00;;;12.26;41.04
10064;BME280;5071;52.360;13.134;2023-04-27T13:22:45;101548.47;;;13.58;39.52
10064;BME280;5071;52.360;13.134;2023-04-27T13:27:47;101547.56;;;12.70;40.49
10064;BME280;5071;52.360;13.134;2023-04-27T13:32:50;101543.72;;;13.05;38.98
10064;BME280;5071;52.360;13.134;2023-04-27T13:37:53;101537.31;;;13.21;37.52
10064;BME280;5071;52.360;13.134;2023-04-27T13:42:55;101548.69;;;12.39;39.26
10064;BME280;5071;52.360;13.134;2023-04-27T13:47:58;101542.03;;;12.91;38.43
10064;BME280;5071;52.360;13.134;2023-04-27T13:53:00;101550.59;;;14.02;36.82
10064;BME280;5071;52.360;13.134;2023-04-27T13:58:02;101538.97;;;13.36;37.63
10064;BME280;5071;52.360;13.134;2023-04-27T14:03:06;101544.16;;;14.16;37.52
10064;BME280;5071;52.360;13.134;2023-04-27T14:08:08;101545.47;;;13.02;38.73
10064;BME280;5071;52.360;13.134;2023-04-27T14:13:11;101550.53;;;12.25;40.79
10064;BME280;5071;52.360;13.134;2023-04-27T14:18:14;101556.09;;;13.09;39.77
10064;BME280;5071;52.360;13.134;2023-04-27T14:23:17;101546.63;;;13.65;37.75
10064;BME280;5071;52.360;13.134;2023-04-27T14:28:19;101543.09;;;13.63;37.95
10064;BME280;5071;52.360;13.134;2023-04-27T14:33:22;101538.91;;;13.40;34.70
10064;BME280;5071;52.360;13.134;2023-04-27T14:38:24;101544.09;;;13.51;35.92
10064;BME280;5071;52.360;13.134;2023-04-27T14:43:26;101556.28;;;13.74;35.36
10064;BME280;5071;52.360;13.134;2023-04-27T14:48:30;101545.97;;;13.46;37.25
10064;BME280;5071;52.360;13.134;2023-04-27T14:53:32;101546.34;;;13.06;37.67
10064;BME280;5071;52.360;13.134;2023-04-27T14:58:34;101552.59;;;13.00;38.38
10064;BME280;5071;52.360;13.134;2023-04-27T15:03:38;101553.59;;;12.90;36.80
10064;BME280;5071;52.360;13.134;2023-04-27T15:08:40;101542.44;;;12.43;39.14
10064;BME280;5071;52.360;13.134;2023-04-27T15:13:42;101538.03;;;12.36;38.47
10064;BME280;5071;52.360;13.134;2023-04-27T15:18:45;101540.09;;;11.86;39.27
10064;BME280;5071;52.360;13.134;2023-04-27T15:23:47;101531.34;;;11.58;40.00
10064;BME280;5071;52.360;13.134;2023-04-27T15:28:50;101529.59;;;11.48;40.60
10064;BME280;5071;52.360;13.134;2023-04-27T15:33:53;101531.22;;;11.92;40.88
10064;BME280;5071;52.360;13.134;2023-04-27T15:38:56;101521.81;;;13.57;37.73
10064;BME280;5071;52.360;13.134;2023-04-27T15:43:58;101511.63;;;13.88;36.54
10064;BME280;5071;52.360;13.134;2023-04-27T15:49:02;101520.94;;;13.56;37.09
10064;BME280;5071;52.360;13.134;2023-04-27T15:54:04;101509.09;;;13.77;36.87
10064;BME280;5071;52.360;13.134;2023-04-27T15:59:06;101510.00;;;13.78;35.33
10064;BME280;5071;52.360;13.134;2023-04-27T16:04:10;101513.66;;;12.86;38.43
10064;BME280;5071;52.360;13.134;2023-04-27T16:09:13;101504.56;;;12.01;39.37
10064;BME280;5071;52.360;13.134;2023-04-27T16:14:15;101492.84;;;12.32;39.55
10064;BME280;5071;52.360;13.134;2023-04-27T16:19:18;101495.75;;;13.03;38.25
10064;BME280;5071;52.360;13.134;2023-04-27T16:24:21;101489.00;;;14.15;36.56
10064;BME280;5071;52.360;13.134;2023-04-27T16:29:23;101482.09;;;14.02;35.33
10064;BME280;5071;52.360;13.134;2023-04-27T16:34:26;101480.91;;;13.59;35.58
10064;BME280;5071;52.360;13.134;2023-04-27T16:39:28;101481.47;;;13.09;35.51
10064;BME280;5071;52.360;13.134;2023-04-27T16:44:31;101481.25;;;13.30;34.88
10064;BME280;5071;52.360;13.134;2023-04-27T16:49:34;101484.44;;;13.61;35.29
10064;BME280;5071;52.360;13.134;2023-04-27T16:54:37;101485.06;;;13.05;36.51
10064;BME280;5071;52.360;13.134;2023-04-27T16:59:39;101479.88;;;12.91;35.90
10064;BME280;5071;52.360;13.134;2023-04-27T17:04:42;101486.44;;;12.53;35.44
10064;BME280;5071;52.360;13.134;2023-04-27T17:09:45;101492.09;;;12.06;36.38
10064;BME280;5071;52.360;13.134;2023-04-27T17:14:46;101493.94;;;11.97;37.04
10064;BME280;5071;52.360;13.134;2023-04-27T17:19:50;101491.47;;;11.54;37.95
10064;BME280;5071;52.360;13.134;2023-04-27T17:24:52;101496.88;;;11.34;39.00
10064;BME280;5071;52.360;13.134;2023-04-27T17:29:54;101489.81;;;11.26;39.40
10064;BME280;5071;52.360;13.134;2023-04-27T17:34:59;101488.97;;;11.03;39.44
10064;BME280;5071;52.360;13.134;2023-04-27T17:40:01;101485.47;;;10.90;39.90
10064;BME280;5071;52.360;13.134;2023-04-27T17:45:04;101489.00;;;10.84;40.73
10064;BME280;5071;52.360;13.134;2023-04-27T17:50:08;101492.59;;;10.56;41.23
10064;BME280;5071;52.360;13.134;2023-04-27T17:55:10;101497.84;;;10.28;42.56
10064;BME280;5071;52.360;13.134;2023-04-27T18:00:13;101496.94;;;10.09;43.20
10064;BME280;5071;52.360;13.134;2023-04-27T18:05:17;101498.66;;;9.82;44.11
10064;BME280;5071;52.360;13.134;2023-04-27T18:10:19;101502.13;;;9.61;45.04
10064;BME280;5071;52.360;13.134;2023-04-27T18:15:21;101495.88;;;9.50;46.71
10064;BME280;5071;52.360;13.134;2023-04-27T18:20:24;101507.31;;;9.35;46.41
10064;BME280;5071;52.360;13.134;2023-04-27T18:25:28;101514.25;;;9.14;47.70
10064;BME280;5071;52.360;13.134;2023-04-27T18:30:31;101522.81;;;8.77;49.82
10064;BME280;5071;52.360;13.134;2023-04-27T18:35:35;101526.97;;;8.45;51.86
10064;BME280;5071;52.360;13.134;2023-04-27T18:40:37;101523.97;;;8.11;53.53
10064;BME280;5071;52.360;13.134;2023-04-27T18:45:39;101532.44;;;7.83;55.58
10064;BME280;5071;52.360;13.134;2023-04-27T18:50:42;101532.78;;;7.38;55.68
10064;BME280;5071;52.360;13.134;2023-04-27T18:55:45;101538.56;;;7.10;57.03
10064;BME280;5071;52.360;13.134;2023-04-27T19:00:47;101536.78;;;7.10;59.32
10064;BME280;5071;52.360;13.134;2023-04-27T19:05:50;101537.31;;;6.86;57.28
10064;BME280;5071;52.360;13.134;2023-04-27T19:10:52;101539.56;;;6.61;57.57
10064;BME280;5071;52.360;13.134;2023-04-27T19:15:54;101546.97;;;6.34;59.54
10064;BME280;5071;52.360;13.134;2023-04-27T19:20:57;101543.03;;;6.10;61.77
10064;BME280;5071;52.360;13.134;2023-04-27T19:25:59;101541.78;;;5.93;60.60
10064;BME280;5071;52.360;13.134;2023-04-27T19:31:14;101537.09;;;5.76;61.06
10064;BME280;5071;52.360;13.134;2023-04-27T19:36:17;101528.84;;;5.59;61.66
10064;BME280;5071;52.360;13.134;2023-04-27T19:41:19;101533.84;;;5.47;63.54
10064;BME280;5071;52.360;13.134;2023-04-27T19:46:22;101533.56;;;5.35;64.53
10064;BME280;5071;52.360;13.134;2023-04-27T19:51:25;101541.53;;;5.38;64.45
10064;BME280;5071;52.360;13.134;2023-04-27T19:56:27;101546.56;;;5.25;67.41
10064;BME280;5071;52.360;13.134;2023-04-27T20:01:29;101544.06;;;4.95;67.21
10064;BME280;5071;52.360;13.134;2023-04-27T20:06:33;101530.47;;;4.75;66.34
10064;BME280;5071;52.360;13.134;2023-04-27T20:11:35;101531.06;;;4.65;66.21
10064;BME280;5071;52.360;13.134;2023-04-27T20:16:36;101536.69;;;4.44;67.22
10064;BME280;5071;52.360;13.134;2023-04-27T20:21:40;101538.34;;;4.40;68.02
10064;BME280;5071;52.360;13.134;2023-04-27T20:26:42;101533.91;;;4.38;70.94
10064;BME280;5071;52.360;13.134;2023-04-27T20:31:44;101526.97;;;4.40;69.73
10064;BME280;5071;52.360;13.134;2023-04-27T20:36:48;101528.47;;;4.32;70.59
10064;BME280;5071;52.360;13.134;2023-04-27T20:41:49;101526.06;;;4.06;68.79
10064;BME280;5071;52.360;13.134;2023-04-27T20:46:51;101530.09;;;3.93;70.37
10064;BME280;5071;52.360;13.134;2023-04-27T20:51:55;101522.03;;;3.85;72.55
10064;BME280;5071;52.360;13.134;2023-04-27T20:56:57;101524.50;;;3.81;73.49
10064;BME280;5071;52.360;13.134;2023-04-27T21:01:59;101522.22;;;3.61;73.81
10064;BME280;5071;52.360;13.134;2023-04-27T21:07:03;101528.00;;;3.49;74.23
10064;BME280;5071;52.360;13.134;2023-04-27T21:12:05;101513.69;;;3.38;73.56
10064;BME280;5071;52.360;13.134;2023-04-27T21:17:07;101504.69;;;3.30;74.73
10064;BME280;5071;52.360;13.134;2023-04-27T21:22:11;101503.91;;;3.33;75.62
10064;BME280;5071;52.360;13.134;2023-04-27T21:27:13;101509.47;;;3.15;75.21
10064;BME280;5071;52.360;13.134;2023-04-27T21:32:15;101510.81;;;3.02;74.93
10064;BME280;5071;52.360;13.134;2023-04-27T21:37:19;101499.97;;;2.89;75.43
10064;BME280;5071;52.360;13.134;2023-04-27T21:42:21;101496.50;;;2.90;76.65
10064;BME280;5071;52.360;13.134;2023-04-27T21:47:23;101498.09;;;2.85;76.82
10064;BME280;5071;52.360;13.134;2023-04-27T21:52:27;101508.06;;;2.70;76.26
10064;BME280;5071;52.360;13.134;2023-04-27T21:57:30;101495.78;;;2.67;75.50
10064;BME280;5071;52.360;13.134;2023-04-27T22:02:32;101499.81;;;2.85;78.35
10064;BME280;5071;52.360;13.134;2023-04-27T22:07:36;101507.44;;;2.77;77.72
10064;BME280;5071;52.360;13.134;2023-04-27T22:12:38;101502.50;;;2.59;76.09
10064;BME280;5071;52.360;13.134;2023-04-27T22:17:41;101504.59;;;2.42;77.00
10064;BME280;5071;52.360;13.134;2023-04-27T22:22:44;101502.53;;;2.33;76.70
10064;BME280;5071;52.360;13.134;2023-04-27T22:27:46;101517.31;;;2.31;78.33
10064;BME280;5071;52.360;13.134;2023-04-27T22:32:48;101511.03;;;2.26;78.08
10064;BME280;5071;52.360;13.134;2023-04-27T22:37:52;101511.75;;;2.22;79.94
10064;BME280;5071;52.360;13.134;2023-04-27T22:42:55;101519.34;;;2.14;80.44
10064;BME280;5071;52.360;13.134;2023-04-27T22:47:57;101511.44;;;2.13;80.46
10064;BME280;5071;52.360;13.134;2023-04-27T22:53:01;101510.19;;;2.02;80.14
10064;BME280;5071;52.360;13.134;2023-04-27T22:58:03;101516.25;;;2.01;81.14
10064;BME280;5071;52.360;13.134;2023-04-27T23:03:05;101505.22;;;1.85;80.72
10064;BME280;5071;52.360;13.134;2023-04-27T23:08:08;101501.84;;;1.88;81.13
10064;BME280;5071;52.360;13.134;2023-04-27T23:13:11;101497.91;;;1.75;80.08
10064;BME280;5071;52.360;13.134;2023-04-27T23:18:13;101489.66;;;1.64;80.34
10064;BME280;5071;52.360;13.134;2023-04-27T23:23:17;101482.63;;;1.63;81.18
10064;BME280;5071;52.360;13.134;2023-04-27T23:28:19;101480.41;;;1.50;81.31
10064;BME280;5071;52.360;13.134;2023-04-27T23:33:21;101475.09;;;1.47;82.56
10064;BME280;5071;52.360;13.134;2023-04-27T23:38:25;101481.00;;;1.41;81.43
10064;BME280;5071;52.360;13.134;2023-04-27T23:43:27;101471.94;;;1.33;83.04
10064;BME280;5071;52.360;13.134;2023-04-27T23:48:30;101482.19;;;1.27;82.96
10064;BME280;5071;52.360;13.134;2023-04-27T23:53:33;101471.50;;;1.21;83.64
10064;BME280;5071;52.360;13.134;2023-04-27T23:58:36;101471.25;;;1.37;82.90
